Duncanville, TX (75116)

11:49 AM CST on January 17, 2018 (GMT -0600)
Irwin Keasler Red Bird North | | Change Station

Elev 732 ft 32.67 °N, 96.92 °W | Updated 6 seconds ago

Clear
Clear
26.4 °F
Feels Like 26 °F
N
0.0
Wind Variable Wind from SSE
Gusts 0.0 mph

Today
High -- | Low -- °F
--% Chance of Precip.
Yesterday
High -- | Low -- °F
Precip. -- in
Pressure 30.79 in
Visibility 10.0 miles
Clouds Clear
Windchill 26 °F
Dew Point 9 °F
Humidity 47%
Rainfall 0.00 in
Snow Depth Not available.
7:29 AM 5:46 PM
New Moon, 0% visible
METAR KRBD 171653Z 00000KT 10SM CLR M04/M16 A3077 RMK AO2 SLP427 T10391156
Pressure 30.79 in
Visibility 10.0 miles
Clouds Clear
Windchill 26 °F
Dew Point 9 °F
Humidity 47%
Rainfall 0.00 in
Snow Depth Not available.
7:29 AM 5:46 PM
New Moon, 0% visible
METAR KRBD 171653Z 00000KT 10SM CLR M04/M16 A3077 RMK AO2 SLP427 T10391156

Get Severe Weather Alerts

Thanks for signing up!

Be on the lookout for a verification email in your inbox.

You'll start receiving the daily forecast at 6 AM.

×

10-Day Weather Forecast

Almanac

Astronomy

Jan. 17, 2018 Rise Set
Actual Time
Civil Twilight
Nautical Twilight
Astronomical Twilight
Moon
Length of Visible Light
Length of Day
Tomorrow will be .
, % of the Moon is Illuminated

Today's Extremes

State Highs State Lows

Community

WunderPhotos

Category 6

Welcome to Category 6. This is the collective home for Weather Underground's featured writeups by Dr. Jeff Masters (right), Bob Henson (left), Chris Burt, and other regular contributors.

Nearby

Air Quality

  Air Quality AQ Index Pollutant
Not available.

Snow Depth

Station Depth Elevation

Earthquake Activity

City Distance Mag. Time & Date
Minimum magnitude displayed is 2.5.

Coastal Water Temperatures

Place Temperature

Stations

Nearby Weather Stations

Station Location Temp. Windchill Dew Point Humidity Wind Precip. Elev Updated Type
                   

Watches & Warnings

There are currently no watches in effect.